sensor_id;sensor_type;location;lat;lon;timestamp;temperature;humidity
16140;DHT22;8175;49.326;12.690;2023-02-28T00:01:06;-4.70;99.90
16140;DHT22;8175;49.326;12.690;2023-02-28T00:03:32;-4.50;99.90
16140;DHT22;8175;49.326;12.690;2023-02-28T00:06:01;-4.50;99.90
16140;DHT22;8175;49.326;12.690;2023-02-28T00:08:27;-4.50;99.90
16140;DHT22;8175;49.326;12.690;2023-02-28T00:10:53;-4.70;99.90
16140;DHT22;8175;49.326;12.690;2023-02-28T00:13:19;-4.80;99.90
16140;DHT22;8175;49.326;12.690;2023-02-28T00:15:44;-4.50;99.90
16140;DHT22;8175;49.326;12.690;2023-02-28T00:18:11;-4.50;99.90
16140;DHT22;8175;49.326;12.690;2023-02-28T00:20:37;-4.60;99.90
16140;DHT22;8175;49.326;12.690;2023-02-28T00:23:03;-4.70;99.90
16140;DHT22;8175;49.326;12.690;2023-02-28T00:25:28;-4.60;99.90
16140;DHT22;8175;49.326;12.690;2023-02-28T00:27:54;-4.40;99.90
16140;DHT22;8175;49.326;12.690;2023-02-28T00:30:22;-4.40;99.90
16140;DHT22;8175;49.326;12.690;2023-02-28T00:32:48;-4.50;99.90
16140;DHT22;8175;49.326;12.690;2023-02-28T00:35:14;-4.50;99.90
16140;DHT22;8175;49.326;12.690;2023-02-28T00:37:40;-4.50;99.90
16140;DHT22;8175;49.326;12.690;2023-02-28T00:40:07;-4.10;99.90
16140;DHT22;8175;49.326;12.690;2023-02-28T00:42:34;-3.90;99.90
16140;DHT22;8175;49.326;12.690;2023-02-28T00:45:00;-3.90;99.90
16140;DHT22;8175;49.326;12.690;2023-02-28T00:47:26;-4.00;99.90
16140;DHT22;8175;49.326;12.690;2023-02-28T00:49:51;-4.00;99.90
16140;DHT22;8175;49.326;12.690;2023-02-28T00:52:17;-4.00;99.90
16140;DHT22;8175;49.326;12.690;2023-02-28T00:54:43;-3.90;99.90
16140;DHT22;8175;49.326;12.690;2023-02-28T00:57:08;-3.80;99.90
16140;DHT22;8175;49.326;12.690;2023-02-28T00:59:34;-3.60;99.90
16140;DHT22;8175;49.326;12.690;2023-02-28T01:02:00;-3.50;99.90
16140;DHT22;8175;49.326;12.690;2023-02-28T01:04:26;-3.50;99.90
16140;DHT22;8175;49.326;12.690;2023-02-28T01:06:51;-3.40;99.90
16140;DHT22;8175;49.326;12.690;2023-02-28T01:09:17;-3.40;99.90
16140;DHT22;8175;49.326;12.690;2023-02-28T01:11:43;-3.40;99.90
16140;DHT22;8175;49.326;12.690;2023-02-28T01:14:13;-3.40;99.90
16140;DHT22;8175;49.326;12.690;2023-02-28T01:16:39;-3.30;99.90
16140;DHT22;8175;49.326;12.690;2023-02-28T01:19:04;-3.30;99.90
16140;DHT22;8175;49.326;12.690;2023-02-28T01:21:30;-3.30;99.90
16140;DHT22;8175;49.326;12.690;2023-02-28T01:23:56;-3.30;99.90
16140;DHT22;8175;49.326;12.690;2023-02-28T01:26:23;-3.30;99.90
16140;DHT22;8175;49.326;12.690;2023-02-28T01:28:50;-3.10;99.90
16140;DHT22;8175;49.326;12.690;2023-02-28T01:31:18;-3.00;99.90
16140;DHT22;8175;49.326;12.690;2023-02-28T01:33:44;-3.00;99.90
16140;DHT22;8175;49.326;12.690;2023-02-28T01:36:19;-3.00;99.90
16140;DHT22;8175;49.326;12.690;2023-02-28T01:38:45;-2.90;99.90
16140;DHT22;8175;49.326;12.690;2023-02-28T01:41:19;-3.00;99.90
16140;DHT22;8175;49.326;12.690;2023-02-28T01:46:11;-3.10;99.90
16140;DHT22;8175;49.326;12.690;2023-02-28T01:48:42;-3.20;99.90
16140;DHT22;8175;49.326;12.690;2023-02-28T01:51:15;-3.20;99.90
16140;DHT22;8175;49.326;12.690;2023-02-28T01:53:47;-3.20;99.90
16140;DHT22;8175;49.326;12.690;2023-02-28T01:56:18;-3.20;99.90
16140;DHT22;8175;49.326;12.690;2023-02-28T01:58:47;-3.30;99.90
16140;DHT22;8175;49.326;12.690;2023-02-28T02:01:13;-3.30;99.90
16140;DHT22;8175;49.326;12.690;2023-02-28T02:03:58;-3.30;99.90
16140;DHT22;8175;49.326;12.690;2023-02-28T02:06:36;-3.40;99.90
16140;DHT22;8175;49.326;12.690;2023-02-28T02:09:02;-3.40;99.90
16140;DHT22;8175;49.326;12.690;2023-02-28T02:11:28;-3.50;99.90
16140;DHT22;8175;49.326;12.690;2023-02-28T02:14:01;-3.30;99.90
16140;DHT22;8175;49.326;12.690;2023-02-28T02:17:10;-3.30;99.90
16140;DHT22;8175;49.326;12.690;2023-02-28T02:34:37;-3.20;99.90
16140;DHT22;8175;49.326;12.690;2023-02-28T02:37:36;-3.40;99.90
16140;DHT22;8175;49.326;12.690;2023-02-28T02:40:29;-3.40;99.90
16140;DHT22;8175;49.326;12.690;2023-02-28T02:45:43;-3.30;99.90
16140;DHT22;8175;49.326;12.690;2023-02-28T02:48:13;-3.40;99.90
16140;DHT22;8175;49.326;12.690;2023-02-28T02:50:49;-3.50;99.90
16140;DHT22;8175;49.326;12.690;2023-02-28T02:53:18;-3.60;99.90
16140;DHT22;8175;49.326;12.690;2023-02-28T02:55:48;-3.60;99.90
16140;DHT22;8175;49.326;12.690;2023-02-28T02:58:24;-3.50;99.90
16140;DHT22;8175;49.326;12.690;2023-02-28T03:00:54;-3.40;99.90
16140;DHT22;8175;49.326;12.690;2023-02-28T03:03:21;-3.40;99.90
16140;DHT22;8175;49.326;12.690;2023-02-28T03:05:54;-3.30;99.90
16140;DHT22;8175;49.326;12.690;2023-02-28T03:08:20;-3.30;99.90
16140;DHT22;8175;49.326;12.690;2023-02-28T03:10:50;-3.30;99.90
16140;DHT22;8175;49.326;12.690;2023-02-28T03:13:36;-3.40;99.90
16140;DHT22;8175;49.326;12.690;2023-02-28T03:16:28;-3.40;99.90
16140;DHT22;8175;49.326;12.690;2023-02-28T03:19:06;-3.40;99.90
16140;DHT22;8175;49.326;12.690;2023-02-28T03:24:49;-3.20;99.90
16140;DHT22;8175;49.326;12.690;2023-02-28T03:27:27;-3.30;99.90
16140;DHT22;8175;49.326;12.690;2023-02-28T03:30:04;-3.30;99.90
16140;DHT22;8175;49.326;12.690;2023-02-28T03:32:36;-3.30;99.90
16140;DHT22;8175;49.326;12.690;2023-02-28T03:35:18;-3.40;99.90
16140;DHT22;8175;49.326;12.690;2023-02-28T03:37:49;-3.30;99.90
16140;DHT22;8175;49.326;12.690;2023-02-28T03:40:20;-3.30;99.90
16140;DHT22;8175;49.326;12.690;2023-02-28T03:42:49;-3.30;99.90
16140;DHT22;8175;49.326;12.690;2023-02-28T03:45:22;-3.20;99.90
16140;DHT22;8175;49.326;12.690;2023-02-28T03:50:42;-3.20;99.90
16140;DHT22;8175;49.326;12.690;2023-02-28T03:56:08;-3.20;99.90
16140;DHT22;8175;49.326;12.690;2023-02-28T03:58:38;-3.10;99.90
16140;DHT22;8175;49.326;12.690;2023-02-28T04:01:16;-3.10;99.90
16140;DHT22;8175;49.326;12.690;2023-02-28T04:03:45;-3.30;99.90
16140;DHT22;8175;49.326;12.690;2023-02-28T04:06:17;-3.30;99.90
16140;DHT22;8175;49.326;12.690;2023-02-28T04:08:44;-3.20;99.90
16140;DHT22;8175;49.326;12.690;2023-02-28T04:13:44;-3.40;99.90
16140;DHT22;8175;49.326;12.690;2023-02-28T04:16:10;-3.50;99.90
16140;DHT22;8175;49.326;12.690;2023-02-28T04:18:41;-3.40;99.90
16140;DHT22;8175;49.326;12.690;2023-02-28T04:21:08;-3.30;99.90
16140;DHT22;8175;49.326;12.690;2023-02-28T04:23:34;-3.30;99.90
16140;DHT22;8175;49.326;12.690;2023-02-28T04:26:00;-3.20;99.90
16140;DHT22;8175;49.326;12.690;2023-02-28T04:28:26;-3.20;99.90
16140;DHT22;8175;49.326;12.690;2023-02-28T04:30:59;-3.20;99.90
16140;DHT22;8175;49.326;12.690;2023-02-28T04:33:25;-3.20;99.90
16140;DHT22;8175;49.326;12.690;2023-02-28T04:36:05;-3.30;99.90
16140;DHT22;8175;49.326;12.690;2023-02-28T04:38:38;-3.40;99.90
16140;DHT22;8175;49.326;12.690;2023-02-28T04:41:04;-3.30;99.90
16140;DHT22;8175;49.326;12.690;2023-02-28T04:43:30;-3.40;99.90
16140;DHT22;8175;49.326;12.690;2023-02-28T04:45:57;-3.40;99.90
16140;DHT22;8175;49.326;12.690;2023-02-28T04:48:24;-3.50;99.90
16140;DHT22;8175;49.326;12.690;2023-02-28T04:50:51;-3.50;99.90
16140;DHT22;8175;49.326;12.690;2023-02-28T04:53:17;-3.50;99.90
16140;DHT22;8175;49.326;12.690;2023-02-28T04:55:44;-3.30;99.90
16140;DHT22;8175;49.326;12.690;2023-02-28T04:58:09;-3.20;99.90
16140;DHT22;8175;49.326;12.690;2023-02-28T05:00:35;-3.20;99.90
16140;DHT22;8175;49.326;12.690;2023-02-28T05:03:01;-3.30;99.90
16140;DHT22;8175;49.326;12.690;2023-02-28T05:05:26;-3.40;99.90
16140;DHT22;8175;49.326;12.690;2023-02-28T05:07:53;-3.50;99.90
16140;DHT22;8175;49.326;12.690;2023-02-28T05:10:21;-3.40;99.90
16140;DHT22;8175;49.326;12.690;2023-02-28T05:12:47;-3.30;99.90
16140;DHT22;8175;49.326;12.690;2023-02-28T05:15:15;-3.40;99.90
16140;DHT22;8175;49.326;12.690;2023-02-28T05:17:41;-3.30;99.90
16140;DHT22;8175;49.326;12.690;2023-02-28T05:20:08;-3.30;99.90
16140;DHT22;8175;49.326;12.690;2023-02-28T05:22:36;-3.10;99.90
16140;DHT22;8175;49.326;12.690;2023-02-28T05:25:03;-3.10;99.90
16140;DHT22;8175;49.326;12.690;2023-02-28T05:27:30;-3.10;99.90
16140;DHT22;8175;49.326;12.690;2023-02-28T05:29:56;-3.10;99.90
16140;DHT22;8175;49.326;12.690;2023-02-28T05:32:22;-3.30;99.90
16140;DHT22;8175;49.326;12.690;2023-02-28T05:34:48;-3.30;99.90
16140;DHT22;8175;49.326;12.690;2023-02-28T05:37:14;-3.30;99.90
16140;DHT22;8175;49.326;12.690;2023-02-28T05:39:41;-3.40;99.90
16140;DHT22;8175;49.326;12.690;2023-02-28T05:42:07;-3.40;99.90
16140;DHT22;8175;49.326;12.690;2023-02-28T05:44:33;-3.30;99.90
16140;DHT22;8175;49.326;12.690;2023-02-28T05:46:58;-3.30;99.90
16140;DHT22;8175;49.326;12.690;2023-02-28T05:49:24;-3.20;99.90
16140;DHT22;8175;49.326;12.690;2023-02-28T05:51:50;-3.30;99.90
16140;DHT22;8175;49.326;12.690;2023-02-28T05:54:16;-3.30;99.90
16140;DHT22;8175;49.326;12.690;2023-02-28T05:56:41;-3.30;99.90
16140;DHT22;8175;49.326;12.690;2023-02-28T05:59:14;-3.20;99.90
16140;DHT22;8175;49.326;12.690;2023-02-28T06:01:42;-3.20;99.90
16140;DHT22;8175;49.326;12.690;2023-02-28T06:04:14;-3.10;99.90
16140;DHT22;8175;49.326;12.690;2023-02-28T06:06:43;-3.10;99.90
16140;DHT22;8175;49.326;12.690;2023-02-28T06:09:10;-3.10;99.90
16140;DHT22;8175;49.326;12.690;2023-02-28T06:11:36;-3.10;99.90
16140;DHT22;8175;49.326;12.690;2023-02-28T06:14:02;-3.10;99.90
16140;DHT22;8175;49.326;12.690;2023-02-28T06:16:28;-3.00;99.90
16140;DHT22;8175;49.326;12.690;2023-02-28T06:18:56;-3.00;99.90
16140;DHT22;8175;49.326;12.690;2023-02-28T06:21:22;-3.00;99.90
16140;DHT22;8175;49.326;12.690;2023-02-28T06:23:47;-3.00;99.90
16140;DHT22;8175;49.326;12.690;2023-02-28T06:26:13;-2.90;99.90
16140;DHT22;8175;49.326;12.690;2023-02-28T06:28:39;-2.80;99.90
16140;DHT22;8175;49.326;12.690;2023-02-28T06:31:13;-2.80;99.90
16140;DHT22;8175;49.326;12.690;2023-02-28T06:33:39;-2.80;99.90
16140;DHT22;8175;49.326;12.690;2023-02-28T06:36:06;-2.70;99.90
16140;DHT22;8175;49.326;12.690;2023-02-28T06:38:32;-2.70;99.90
16140;DHT22;8175;49.326;12.690;2023-02-28T06:40:59;-2.60;99.90
16140;DHT22;8175;49.326;12.690;2023-02-28T06:43:31;-2.60;99.90
16140;DHT22;8175;49.326;12.690;2023-02-28T06:45:59;-2.60;99.90
16140;DHT22;8175;49.326;12.690;2023-02-28T06:48:27;-2.60;99.90
16140;DHT22;8175;49.326;12.690;2023-02-28T06:51:03;-2.50;99.90
16140;DHT22;8175;49.326;12.690;2023-02-28T06:53:29;-2.50;99.90
16140;DHT22;8175;49.326;12.690;2023-02-28T06:55:54;-2.50;99.90
16140;DHT22;8175;49.326;12.690;2023-02-28T06:58:20;-2.40;99.90
16140;DHT22;8175;49.326;12.690;2023-02-28T07:00:51;-2.40;99.90
16140;DHT22;8175;49.326;12.690;2023-02-28T07:03:17;-2.40;99.90
16140;DHT22;8175;49.326;12.690;2023-02-28T07:05:43;-2.40;99.90
16140;DHT22;8175;49.326;12.690;2023-02-28T07:08:09;-2.50;99.90
16140;DHT22;8175;49.326;12.690;2023-02-28T07:10:37;-2.40;99.90
16140;DHT22;8175;49.326;12.690;2023-02-28T07:13:04;-2.40;99.90
16140;DHT22;8175;49.326;12.690;2023-02-28T07:15:30;-2.30;99.90
16140;DHT22;8175;49.326;12.690;2023-02-28T07:17:55;-2.30;99.90
16140;DHT22;8175;49.326;12.690;2023-02-28T07:20:22;-2.30;99.90
16140;DHT22;8175;49.326;12.690;2023-02-28T07:22:48;-2.30;99.90
16140;DHT22;8175;49.326;12.690;2023-02-28T07:25:21;-2.20;99.90
16140;DHT22;8175;49.326;12.690;2023-02-28T07:27:47;-2.00;99.90
16140;DHT22;8175;49.326;12.690;2023-02-28T07:30:13;-2.10;99.90
16140;DHT22;8175;49.326;12.690;2023-02-28T07:32:38;-2.10;99.90
16140;DHT22;8175;49.326;12.690;2023-02-28T07:35:04;-2.10;99.90
16140;DHT22;8175;49.326;12.690;2023-02-28T07:37:30;-2.10;99.90
16140;DHT22;8175;49.326;12.690;2023-02-28T07:40:03;-2.10;99.90
16140;DHT22;8175;49.326;12.690;2023-02-28T07:42:32;-1.90;99.90
16140;DHT22;8175;49.326;12.690;2023-02-28T07:44:57;-1.80;99.90
16140;DHT22;8175;49.326;12.690;2023-02-28T07:47:24;-1.50;99.90
16140;DHT22;8175;49.326;12.690;2023-02-28T07:49:50;-1.10;99.90
16140;DHT22;8175;49.326;12.690;2023-02-28T07:52:15;-1.30;99.90
16140;DHT22;8175;49.326;12.690;2023-02-28T07:54:41;-1.50;99.90
16140;DHT22;8175;49.326;12.690;2023-02-28T07:57:07;-1.50;99.90
16140;DHT22;8175;49.326;12.690;2023-02-28T07:59:32;-1.50;99.90
16140;DHT22;8175;49.326;12.690;2023-02-28T08:01:58;-1.30;99.90
16140;DHT22;8175;49.326;12.690;2023-02-28T08:04:26;-0.80;99.90
16140;DHT22;8175;49.326;12.690;2023-02-28T08:06:51;-0.40;99.90
16140;DHT22;8175;49.326;12.690;2023-02-28T08:09:18;0.10;99.90
16140;DHT22;8175;49.326;12.690;2023-02-28T08:11:44;0.40;99.90
16140;DHT22;8175;49.326;12.690;2023-02-28T08:14:10;-0.10;99.90
16140;DHT22;8175;49.326;12.690;2023-02-28T08:16:35;-0.60;99.90
16140;DHT22;8175;49.326;12.690;2023-02-28T08:19:01;-1.00;99.90
16140;DHT22;8175;49.326;12.690;2023-02-28T08:21:27;-1.20;99.90
16140;DHT22;8175;49.326;12.690;2023-02-28T08:23:52;-1.10;99.90
16140;DHT22;8175;49.326;12.690;2023-02-28T08:26:19;-1.10;99.90
16140;DHT22;8175;49.326;12.690;2023-02-28T08:28:45;-1.20;99.90
16140;DHT22;8175;49.326;12.690;2023-02-28T08:31:12;-0.90;99.90
16140;DHT22;8175;49.326;12.690;2023-02-28T08:33:40;-0.60;99.90
16140;DHT22;8175;49.326;12.690;2023-02-28T08:36:07;-0.70;99.90
16140;DHT22;8175;49.326;12.690;2023-02-28T08:38:33;-0.40;99.90
16140;DHT22;8175;49.326;12.690;2023-02-28T08:41:01;-0.10;99.90
16140;DHT22;8175;49.326;12.690;2023-02-28T08:43:27;0.20;99.90
16140;DHT22;8175;49.326;12.690;2023-02-28T08:45:57;0.40;99.90
16140;DHT22;8175;49.326;12.690;2023-02-28T08:48:24;-0.10;99.90
16140;DHT22;8175;49.326;12.690;2023-02-28T08:51:09;-0.20;99.90
16140;DHT22;8175;49.326;12.690;2023-02-28T08:53:37;-0.40;99.90
16140;DHT22;8175;49.326;12.690;2023-02-28T08:56:09;-0.60;99.90
16140;DHT22;8175;49.326;12.690;2023-02-28T08:58:35;-0.60;99.90
16140;DHT22;8175;49.326;12.690;2023-02-28T09:01:06;-0.70;99.90
16140;DHT22;8175;49.326;12.690;2023-02-28T09:03:32;-0.20;99.90
16140;DHT22;8175;49.326;12.690;2023-02-28T09:05:59;0.10;99.90
16140;DHT22;8175;49.326;12.690;2023-02-28T09:08:28;0.30;99.90
16140;DHT22;8175;49.326;12.690;2023-02-28T09:10:54;0.10;99.90
16140;DHT22;8175;49.326;12.690;2023-02-28T09:13:22;0.00;99.90
16140;DHT22;8175;49.326;12.690;2023-02-28T09:15:48;0.30;99.90
16140;DHT22;8175;49.326;12.690;2023-02-28T09:18:13;1.20;99.90
16140;DHT22;8175;49.326;12.690;2023-02-28T09:20:40;2.00;99.90
16140;DHT22;8175;49.326;12.690;2023-02-28T09:23:08;2.80;99.90
16140;DHT22;8175;49.326;12.690;2023-02-28T09:25:34;2.70;99.90
16140;DHT22;8175;49.326;12.690;2023-02-28T09:28:00;0.90;99.90
16140;DHT22;8175;49.326;12.690;2023-02-28T09:30:26;1.00;99.90
16140;DHT22;8175;49.326;12.690;2023-02-28T09:32:52;1.80;99.90
16140;DHT22;8175;49.326;12.690;2023-02-28T09:35:20;1.50;99.90
16140;DHT22;8175;49.326;12.690;2023-02-28T09:37:47;2.00;99.90
16140;DHT22;8175;49.326;12.690;2023-02-28T09:40:13;2.60;99.90
16140;DHT22;8175;49.326;12.690;2023-02-28T09:42:43;3.50;99.90
16140;DHT22;8175;49.326;12.690;2023-02-28T09:45:22;4.60;99.90
16140;DHT22;8175;49.326;12.690;2023-02-28T09:47:50;4.60;99.90
16140;DHT22;8175;49.326;12.690;2023-02-28T09:50:29;4.40;99.90
16140;DHT22;8175;49.326;12.690;2023-02-28T09:52:58;4.80;99.90
16140;DHT22;8175;49.326;12.690;2023-02-28T09:55:44;5.60;99.20
16140;DHT22;8175;49.326;12.690;2023-02-28T10:01:01;6.30;96.40
16140;DHT22;8175;49.326;12.690;2023-02-28T10:06:05;6.40;91.00
16140;DHT22;8175;49.326;12.690;2023-02-28T10:11:16;4.50;94.50
16140;DHT22;8175;49.326;12.690;2023-02-28T10:13:51;3.70;94.90
16140;DHT22;8175;49.326;12.690;2023-02-28T10:16:52;3.10;96.30
16140;DHT22;8175;49.326;12.690;2023-02-28T10:22:03;5.30;96.60
16140;DHT22;8175;49.326;12.690;2023-02-28T10:24:42;6.90;92.90
16140;DHT22;8175;49.326;12.690;2023-02-28T10:27:19;8.00;89.40
16140;DHT22;8175;49.326;12.690;2023-02-28T10:29:51;6.20;86.20
16140;DHT22;8175;49.326;12.690;2023-02-28T10:32:24;5.00;92.20
16140;DHT22;8175;49.326;12.690;2023-02-28T10:35:03;4.40;95.20
16140;DHT22;8175;49.326;12.690;2023-02-28T10:37:33;6.00;90.20
16140;DHT22;8175;49.326;12.690;2023-02-28T10:40:07;6.70;88.50
16140;DHT22;8175;49.326;12.690;2023-02-28T10:43:16;7.20;87.60
16140;DHT22;8175;49.326;12.690;2023-02-28T10:50:52;7.10;88.40
16140;DHT22;8175;49.326;12.690;2023-02-28T11:03:48;6.40;83.70
16140;DHT22;8175;49.326;12.690;2023-02-28T11:06:32;7.10;85.70
16140;DHT22;8175;49.326;12.690;2023-02-28T11:08:59;5.50;87.00
16140;DHT22;8175;49.326;12.690;2023-02-28T11:11:29;4.50;91.10
16140;DHT22;8175;49.326;12.690;2023-02-28T11:14:03;4.20;92.30
16140;DHT22;8175;49.326;12.690;2023-02-28T11:16:37;5.40;91.30
16140;DHT22;8175;49.326;12.690;2023-02-28T11:19:06;7.50;85.40
16140;DHT22;8175;49.326;12.690;2023-02-28T11:21:36;9.30;82.40
16140;DHT22;8175;49.326;12.690;2023-02-28T11:24:30;10.70;75.00
16140;DHT22;8175;49.326;12.690;2023-02-28T11:26:57;9.50;71.00
16140;DHT22;8175;49.326;12.690;2023-02-28T11:29:33;9.00;73.20
16140;DHT22;8175;49.326;12.690;2023-02-28T11:32:19;8.50;73.40
16140;DHT22;8175;49.326;12.690;2023-02-28T11:34:46;7.60;81.80
16140;DHT22;8175;49.326;12.690;2023-02-28T11:37:15;9.80;76.80
16140;DHT22;8175;49.326;12.690;2023-02-28T11:39:42;9.60;70.40
16140;DHT22;8175;49.326;12.690;2023-02-28T11:50:57;7.30;78.30
16140;DHT22;8175;49.326;12.690;2023-02-28T11:58:44;8.80;74.90
16140;DHT22;8175;49.326;12.690;2023-02-28T12:01:29;7.70;77.60
16140;DHT22;8175;49.326;12.690;2023-02-28T12:04:00;8.20;75.50
16140;DHT22;8175;49.326;12.690;2023-02-28T12:06:50;8.90;72.30
16140;DHT22;8175;49.326;12.690;2023-02-28T12:09:32;7.80;77.70
16140;DHT22;8175;49.326;12.690;2023-02-28T12:28:14;5.60;82.90
16140;DHT22;8175;49.326;12.690;2023-02-28T12:31:01;7.10;80.90
16140;DHT22;8175;49.326;12.690;2023-02-28T12:33:34;7.10;78.90
16140;DHT22;8175;49.326;12.690;2023-02-28T12:36:10;7.60;77.80
16140;DHT22;8175;49.326;12.690;2023-02-28T12:38:47;8.40;75.90
16140;DHT22;8175;49.326;12.690;2023-02-28T12:41:22;9.20;72.60
16140;DHT22;8175;49.326;12.690;2023-02-28T12:44:06;7.20;77.60
16140;DHT22;8175;49.326;12.690;2023-02-28T12:46:59;6.90;83.30
16140;DHT22;8175;49.326;12.690;2023-02-28T12:49:27;6.60;81.70
16140;DHT22;8175;49.326;12.690;2023-02-28T12:51:58;5.80;84.80
16140;DHT22;8175;49.326;12.690;2023-02-28T12:54:56;6.10;85.20
16140;DHT22;8175;49.326;12.690;2023-02-28T13:00:03;6.10;83.40
16140;DHT22;8175;49.326;12.690;2023-02-28T13:03:01;6.70;80.90
16140;DHT22;8175;49.326;12.690;2023-02-28T13:19:29;6.30;83.50
16140;DHT22;8175;49.326;12.690;2023-02-28T13:21:56;6.00;82.20
16140;DHT22;8175;49.326;12.690;2023-02-28T13:27:21;5.40;84.60
16140;DHT22;8175;49.326;12.690;2023-02-28T13:29:52;5.50;83.50
16140;DHT22;8175;49.326;12.690;2023-02-28T13:32:34;7.00;84.20
16140;DHT22;8175;49.326;12.690;2023-02-28T13:37:37;6.30;80.50
16140;DHT22;8175;49.326;12.690;2023-02-28T13:47:59;6.80;82.50
16140;DHT22;8175;49.326;12.690;2023-02-28T13:58:51;7.40;79.70
16140;DHT22;8175;49.326;12.690;2023-02-28T14:04:05;7.70;79.10
16140;DHT22;8175;49.326;12.690;2023-02-28T14:06:36;6.70;79.70
16140;DHT22;8175;49.326;12.690;2023-02-28T14:09:15;6.10;80.30
16140;DHT22;8175;49.326;12.690;2023-02-28T14:11:43;6.90;81.60
16140;DHT22;8175;49.326;12.690;2023-02-28T14:17:08;6.00;87.10
16140;DHT22;8175;49.326;12.690;2023-02-28T14:19:38;6.90;86.10
16140;DHT22;8175;49.326;12.690;2023-02-28T14:25:06;6.90;81.50
16140;DHT22;8175;49.326;12.690;2023-02-28T14:33:32;5.80;88.60
16140;DHT22;8175;49.326;12.690;2023-02-28T14:36:20;6.20;82.60
16140;DHT22;8175;49.326;12.690;2023-02-28T14:38:52;6.40;81.10
16140;DHT22;8175;49.326;12.690;2023-02-28T14:41:32;6.60;83.80
16140;DHT22;8175;49.326;12.690;2023-02-28T14:44:01;5.70;81.40
16140;DHT22;8175;49.326;12.690;2023-02-28T14:46:36;5.10;87.60
16140;DHT22;8175;49.326;12.690;2023-02-28T14:49:04;6.00;88.90
16140;DHT22;8175;49.326;12.690;2023-02-28T14:51:30;5.90;84.00
16140;DHT22;8175;49.326;12.690;2023-02-28T14:53:59;6.30;83.60
16140;DHT22;8175;49.326;12.690;2023-02-28T14:56:39;4.80;83.70
16140;DHT22;8175;49.326;12.690;2023-02-28T14:59:17;5.30;88.50
16140;DHT22;8175;49.326;12.690;2023-02-28T15:01:48;5.30;86.20
16140;DHT22;8175;49.326;12.690;2023-02-28T15:04:24;5.00;89.80
16140;DHT22;8175;49.326;12.690;2023-02-28T15:07:10;4.90;89.20
16140;DHT22;8175;49.326;12.690;2023-02-28T15:09:36;4.80;90.20
16140;DHT22;8175;49.326;12.690;2023-02-28T15:12:01;4.90;90.50
16140;DHT22;8175;49.326;12.690;2023-02-28T15:14:27;4.10;90.10
16140;DHT22;8175;49.326;12.690;2023-02-28T15:17:03;3.90;90.70
16140;DHT22;8175;49.326;12.690;2023-02-28T15:19:34;3.60;91.80
16140;DHT22;8175;49.326;12.690;2023-02-28T15:22:04;2.80;93.30
16140;DHT22;8175;49.326;12.690;2023-02-28T15:24:40;2.60;94.10
16140;DHT22;8175;49.326;12.690;2023-02-28T15:27:15;2.60;94.10
16140;DHT22;8175;49.326;12.690;2023-02-28T15:29:46;2.50;94.70
16140;DHT22;8175;49.326;12.690;2023-02-28T15:34:55;2.20;95.40
16140;DHT22;8175;49.326;12.690;2023-02-28T15:38:00;2.30;95.50
16140;DHT22;8175;49.326;12.690;2023-02-28T15:40:26;2.10;96.60
16140;DHT22;8175;49.326;12.690;2023-02-28T15:43:23;2.20;96.80
16140;DHT22;8175;49.326;12.690;2023-02-28T15:45:51;2.10;96.80
16140;DHT22;8175;49.326;12.690;2023-02-28T15:48:29;1.90;98.00
16140;DHT22;8175;49.326;12.690;2023-02-28T15:53:56;1.80;98.70
16140;DHT22;8175;49.326;12.690;2023-02-28T15:56:31;1.60;99.30
16140;DHT22;8175;49.326;12.690;2023-02-28T15:59:02;1.60;99.90
16140;DHT22;8175;49.326;12.690;2023-02-28T16:01:32;1.70;99.90
16140;DHT22;8175;49.326;12.690;2023-02-28T16:04:01;1.60;99.90
16140;DHT22;8175;49.326;12.690;2023-02-28T16:09:04;1.20;99.90
16140;DHT22;8175;49.326;12.690;2023-02-28T16:11:30;1.20;99.90
16140;DHT22;8175;49.326;12.690;2023-02-28T16:13:58;1.20;99.90
16140;DHT22;8175;49.326;12.690;2023-02-28T16:16:24;1.10;99.90
16140;DHT22;8175;49.326;12.690;2023-02-28T16:18:51;1.00;99.90
16140;DHT22;8175;49.326;12.690;2023-02-28T16:21:17;0.90;99.90
16140;DHT22;8175;49.326;12.690;2023-02-28T16:23:42;0.80;99.90
16140;DHT22;8175;49.326;12.690;2023-02-28T16:26:18;0.80;99.90
16140;DHT22;8175;49.326;12.690;2023-02-28T16:28:45;0.70;99.90
16140;DHT22;8175;49.326;12.690;2023-02-28T16:31:11;0.70;99.90
16140;DHT22;8175;49.326;12.690;2023-02-28T16:33:42;0.50;99.90
16140;DHT22;8175;49.326;12.690;2023-02-28T16:36:22;0.50;99.90
16140;DHT22;8175;49.326;12.690;2023-02-28T16:38:50;0.40;99.90
16140;DHT22;8175;49.326;12.690;2023-02-28T16:41:21;0.40;99.90
16140;DHT22;8175;49.326;12.690;2023-02-28T16:43:49;0.30;99.90
16140;DHT22;8175;49.326;12.690;2023-02-28T16:46:16;0.30;99.90
16140;DHT22;8175;49.326;12.690;2023-02-28T16:48:43;0.30;99.90
16140;DHT22;8175;49.326;12.690;2023-02-28T16:51:12;0.20;99.90
16140;DHT22;8175;49.326;12.690;2023-02-28T16:53:38;0.10;99.90
16140;DHT22;8175;49.326;12.690;2023-02-28T16:56:03;0.10;99.90
16140;DHT22;8175;49.326;12.690;2023-02-28T16:58:32;0.10;99.90
16140;DHT22;8175;49.326;12.690;2023-02-28T17:01:01;-0.10;99.90
16140;DHT22;8175;49.326;12.690;2023-02-28T17:03:28;-0.10;99.90
16140;DHT22;8175;49.326;12.690;2023-02-28T17:05:54;-0.20;99.90
16140;DHT22;8175;49.326;12.690;2023-02-28T17:08:20;-0.20;99.90
16140;DHT22;8175;49.326;12.690;2023-02-28T17:10:45;-0.20;99.90
16140;DHT22;8175;49.326;12.690;2023-02-28T17:13:11;-0.10;99.90
16140;DHT22;8175;49.326;12.690;2023-02-28T17:15:37;-0.20;99.90
16140;DHT22;8175;49.326;12.690;2023-02-28T17:18:04;-0.30;99.90
16140;DHT22;8175;49.326;12.690;2023-02-28T17:20:30;-0.30;99.90
16140;DHT22;8175;49.326;12.690;2023-02-28T17:22:56;-0.20;99.90
16140;DHT22;8175;49.326;12.690;2023-02-28T17:25:23;-0.20;99.90
16140;DHT22;8175;49.326;12.690;2023-02-28T17:27:50;-0.20;99.90
16140;DHT22;8175;49.326;12.690;2023-02-28T17:30:21;-0.30;99.90
16140;DHT22;8175;49.326;12.690;2023-02-28T17:32:46;-0.30;99.90
16140;DHT22;8175;49.326;12.690;2023-02-28T17:35:12;-0.30;99.90
16140;DHT22;8175;49.326;12.690;2023-02-28T17:37:38;-0.20;99.90
16140;DHT22;8175;49.326;12.690;2023-02-28T17:40:05;-0.20;99.90
16140;DHT22;8175;49.326;12.690;2023-02-28T17:42:30;-0.20;99.90
16140;DHT22;8175;49.326;12.690;2023-02-28T17:44:56;-0.20;99.90
16140;DHT22;8175;49.326;12.690;2023-02-28T17:47:22;-0.20;99.90
16140;DHT22;8175;49.326;12.690;2023-02-28T17:49:47;-0.20;99.90
16140;DHT22;8175;49.326;12.690;2023-02-28T17:52:13;-0.10;99.90
16140;DHT22;8175;49.326;12.690;2023-02-28T17:54:39;-0.10;99.90
16140;DHT22;8175;49.326;12.690;2023-02-28T17:57:04;0.00;99.90
16140;DHT22;8175;49.326;12.690;2023-02-28T17:59:30;-0.10;99.90
16140;DHT22;8175;49.326;12.690;2023-02-28T18:02:02;-0.10;99.90
16140;DHT22;8175;49.326;12.690;2023-02-28T18:04:29;-0.10;99.90
16140;DHT22;8175;49.326;12.690;2023-02-28T18:06:55;-0.20;99.90
16140;DHT22;8175;49.326;12.690;2023-02-28T18:09:25;-0.30;99.90
16140;DHT22;8175;49.326;12.690;2023-02-28T18:11:53;-0.20;99.90
16140;DHT22;8175;49.326;12.690;2023-02-28T18:14:21;-0.20;99.90
16140;DHT22;8175;49.326;12.690;2023-02-28T18:16:48;-0.30;99.90
16140;DHT22;8175;49.326;12.690;2023-02-28T18:19:14;-0.30;99.90
16140;DHT22;8175;49.326;12.690;2023-02-28T18:21:42;-0.40;99.90
16140;DHT22;8175;49.326;12.690;2023-02-28T18:24:08;-0.30;99.90